createdAt,value
2022-08-18T00:02:28.172Z,35.57
2022-08-18T00:04:58.619Z,35.92
2022-08-18T00:07:31.005Z,35.67
2022-08-18T00:10:00.466Z,35.90
2022-08-18T00:12:36.976Z,36.43
2022-08-18T00:15:08.408Z,36.25
2022-08-18T00:17:37.036Z,35.88
2022-08-18T00:20:14.115Z,36.08
2022-08-18T00:22:42.554Z,35.56
2022-08-18T00:25:17.345Z,35.85
2022-08-18T00:27:45.341Z,36.04
2022-08-18T00:30:17.328Z,34.80
2022-08-18T00:32:50.942Z,37.17
2022-08-18T00:35:21.055Z,39.28
2022-08-18T00:37:50.082Z,38.10
2022-08-18T00:40:22.217Z,38.89
2022-08-18T00:42:55.422Z,39.63
2022-08-18T00:45:28.143Z,39.24
2022-08-18T00:47:57.205Z,39.14
2022-08-18T00:50:34.983Z,39.77
2022-08-18T00:53:23.332Z,41.69
2022-08-18T00:55:53.956Z,40.92
2022-08-18T00:58:39.078Z,40.79
2022-08-18T01:01:09.841Z,42.50
2022-08-18T01:03:42.528Z,41.95
2022-08-18T01:06:21.802Z,40.82
2022-08-18T01:08:49.409Z,35.02
2022-08-18T01:11:17.071Z,36.22
2022-08-18T01:13:45.194Z,35.93
2022-08-18T01:16:33.235Z,35.65
2022-08-18T01:19:19.765Z,34.76
2022-08-18T01:21:55.473Z,34.33
2022-08-18T01:24:49.658Z,35.05
2022-08-18T01:27:19.308Z,34.64
2022-08-18T01:29:49.502Z,35.33
2022-08-18T01:32:20.871Z,36.10
2022-08-18T01:34:51.201Z,35.16
2022-08-18T01:37:22.375Z,36.16
2022-08-18T01:41:23.006Z,37.98
2022-08-18T01:42:43.517Z,38.57
2022-08-18T01:45:15.278Z,38.22
2022-08-18T01:47:58.206Z,38.80
2022-08-18T01:50:26.523Z,38.65
2022-08-18T01:52:54.152Z,37.86
2022-08-18T01:55:22.158Z,38.66
2022-08-18T01:57:49.983Z,39.18
2022-08-18T02:00:19.252Z,39.53
2022-08-18T02:03:01.726Z,39.93
2022-08-18T02:05:37.013Z,38.92
2022-08-18T02:08:06.595Z,39.39
2022-08-18T02:10:35.311Z,39.21
2022-08-18T02:13:03.019Z,39.00
2022-08-18T02:15:31.209Z,40.45
2022-08-18T02:17:59.006Z,40.45
2022-08-18T02:20:26.646Z,40.65
2022-08-18T02:22:54.583Z,40.68
2022-08-18T02:25:23.013Z,39.92
2022-08-18T02:27:51.254Z,40.57
2022-08-18T02:30:20.420Z,39.35
2022-08-18T02:32:48.365Z,39.74
2022-08-18T02:35:16.601Z,39.43
2022-08-18T02:37:48.263Z,38.78
2022-08-18T02:40:18.251Z,39.22
2022-08-18T02:42:47.310Z,40.43
2022-08-18T02:45:16.395Z,40.24
2022-08-18T02:47:45.289Z,41.13
2022-08-18T02:50:16.587Z,43.38
2022-08-18T02:52:47.888Z,42.62
2022-08-18T02:55:16.592Z,43.72
2022-08-18T02:57:46.990Z,44.74
2022-08-18T03:00:18.996Z,44.60
2022-08-18T03:02:52.309Z,43.02
2022-08-18T03:05:20.605Z,44.62
2022-08-18T03:07:50.297Z,44.83
2022-08-18T03:10:31.694Z,45.03
2022-08-18T03:13:01.789Z,44.11
2022-08-18T03:15:29.841Z,44.60
2022-08-18T03:17:58.222Z,44.51
2022-08-18T03:20:30.200Z,44.63
2022-08-18T03:23:05.910Z,42.33
2022-08-18T03:25:48.928Z,41.89
2022-08-18T03:28:17.799Z,48.63
2022-08-18T03:30:45.398Z,49.31
2022-08-18T03:33:14.460Z,51.78
2022-08-18T03:35:42.475Z,51.87
2022-08-18T03:38:10.506Z,52.30
2022-08-18T03:40:39.613Z,53.80
2022-08-18T03:43:23.637Z,56.01
2022-08-18T03:45:55.578Z,51.97
2022-08-18T03:48:23.302Z,47.26
2022-08-18T03:50:51.520Z,45.60
2022-08-18T03:53:19.591Z,44.87
2022-08-18T03:55:47.309Z,45.41
2022-08-18T03:58:15.679Z,46.16
2022-08-18T04:00:43.494Z,45.75
2022-08-18T04:03:12.950Z,47.11
2022-08-18T04:05:42.501Z,46.39
2022-08-18T04:08:11.835Z,46.91
2022-08-18T04:10:41.522Z,47.74
2022-08-18T04:13:12.034Z,50.21
2022-08-18T04:15:41.127Z,52.09
2022-08-18T04:18:09.500Z,54.17
2022-08-18T04:20:37.442Z,54.90
2022-08-18T04:23:23.796Z,57.05
2022-08-18T04:26:02.044Z,59.03
2022-08-18T04:28:30.606Z,59.93
2022-08-18T04:30:59.467Z,63.75
2022-08-18T04:33:28.406Z,62.18
2022-08-18T04:35:56.944Z,61.74
2022-08-18T04:38:24.547Z,64.24
2022-08-18T04:40:52.155Z,64.98
2022-08-18T04:43:20.167Z,65.08
2022-08-18T04:45:48.131Z,65.87
2022-08-18T04:48:16.278Z,68.80
2022-08-18T04:50:44.721Z,65.86
2022-08-18T04:53:33.452Z,64.46
2022-08-18T04:56:01.133Z,63.19
2022-08-18T04:58:28.739Z,61.12
2022-08-18T05:01:01.850Z,59.06
2022-08-18T05:03:29.541Z,57.12
2022-08-18T05:05:59.901Z,57.77
2022-08-18T05:08:27.623Z,57.26
2022-08-18T05:11:03.897Z,56.15
2022-08-18T05:13:32.087Z,56.97
2022-08-18T05:16:18.094Z,55.12
2022-08-18T05:18:53.525Z,55.47
2022-08-18T05:21:24.504Z,53.51
2022-08-18T05:23:52.384Z,51.41
2022-08-18T05:26:20.093Z,49.27
2022-08-18T05:28:48.588Z,50.24
2022-08-18T05:31:25.614Z,65.97
2022-08-18T05:33:55.831Z,51.00
2022-08-18T05:36:26.162Z,47.65
2022-08-18T05:39:06.976Z,47.27
2022-08-18T05:41:42.571Z,47.33
2022-08-18T05:44:15.600Z,46.75
2022-08-18T05:46:56.895Z,47.33
2022-08-18T05:49:27.435Z,46.13
2022-08-18T05:52:02.874Z,45.81
2022-08-18T05:55:07.197Z,44.98
2022-08-18T05:57:46.127Z,45.20
2022-08-18T06:00:16.435Z,45.49
2022-08-18T06:03:04.523Z,46.58
2022-08-18T06:05:53.953Z,44.90
2022-08-18T06:08:29.432Z,42.98
2022-08-18T06:10:57.254Z,43.36
2022-08-18T06:13:25.546Z,43.97
2022-08-18T06:16:25.685Z,43.48
2022-08-18T06:19:02.099Z,41.81
2022-08-18T06:22:00.905Z,40.50
2022-08-18T06:24:51.025Z,46.90
2022-08-18T06:27:31.492Z,38.35
2022-08-18T06:30:20.327Z,35.99
2022-08-18T06:33:06.386Z,35.25
2022-08-18T06:35:52.164Z,37.87
2022-08-18T06:38:40.708Z,37.39
2022-08-18T06:41:42.464Z,38.28
2022-08-18T06:44:13.848Z,35.75
2022-08-18T06:46:53.763Z,35.99
2022-08-18T06:49:24.737Z,34.32
2022-08-18T06:51:54.163Z,33.96
2022-08-18T06:54:28.550Z,33.92
2022-08-18T06:56:58.459Z,34.05
2022-08-18T06:59:28.631Z,33.18
2022-08-18T07:02:02.486Z,32.21
2022-08-18T07:04:39.498Z,32.13
2022-08-18T07:07:21.061Z,31.18
2022-08-18T07:09:49.542Z,31.08
2022-08-18T07:12:32.561Z,32.02
2022-08-18T07:15:04.114Z,32.48
2022-08-18T07:17:43.649Z,32.60
2022-08-18T07:20:23.911Z,33.89
2022-08-18T07:23:08.182Z,33.95
2022-08-18T07:25:43.546Z,33.97
2022-08-18T07:28:42.574Z,33.76
2022-08-18T07:31:28.609Z,34.39
2022-08-18T07:34:14.013Z,34.05
2022-08-18T07:37:16.666Z,34.40
2022-08-18T07:39:51.820Z,33.90
2022-08-18T07:42:54.368Z,33.41
2022-08-18T07:45:42.712Z,40.48
2022-08-18T07:48:39.820Z,35.36
2022-08-18T07:51:53.353Z,33.11
2022-08-18T07:54:48.418Z,33.26
2022-08-18T07:57:19.685Z,34.65
2022-08-18T08:00:10.564Z,36.08
2022-08-18T08:03:26.740Z,36.34
2022-08-18T08:06:17.185Z,35.18
2022-08-18T08:09:17.971Z,36.87
2022-08-18T08:12:07.696Z,36.05
2022-08-18T08:14:47.801Z,37.40
2022-08-18T08:17:18.737Z,37.05
2022-08-18T08:20:21.289Z,36.90
2022-08-18T08:23:19.138Z,36.47
2022-08-18T08:25:59.346Z,37.20
2022-08-18T08:28:56.021Z,35.93
2022-08-18T08:31:57.696Z,36.03
2022-08-18T08:34:31.753Z,36.83
2022-08-18T08:37:08.000Z,35.51
2022-08-18T08:39:38.511Z,35.98
2022-08-18T08:42:31.350Z,35.66
2022-08-18T08:45:27.544Z,34.11
2022-08-18T08:48:27.625Z,35.32
2022-08-18T08:51:26.871Z,36.53
2022-08-18T08:54:16.631Z,36.09
2022-08-18T08:56:49.729Z,35.04
2022-08-18T08:59:25.797Z,35.80
2022-08-18T09:02:44.333Z,34.44
2022-08-18T09:05:29.053Z,35.34
2022-08-18T09:07:57.861Z,34.24
2022-08-18T09:10:39.593Z,35.43
2022-08-18T09:13:33.710Z,34.64
2022-08-18T09:16:19.989Z,36.04
2022-08-18T09:19:26.529Z,36.03
2022-08-18T09:22:11.615Z,35.49
2022-08-18T09:25:00.279Z,35.14
2022-08-18T09:27:40.020Z,36.04
2022-08-18T09:30:43.654Z,37.21
2022-08-18T09:33:29.823Z,37.05
2022-08-18T09:36:43.071Z,36.71
2022-08-18T09:39:54.586Z,36.49
2022-08-18T09:42:48.608Z,36.07
2022-08-18T09:45:34.418Z,35.80
2022-08-18T09:48:20.788Z,36.69
2022-08-18T09:51:19.557Z,35.64
2022-08-18T09:53:54.059Z,36.09
2022-08-18T09:56:54.381Z,36.41
2022-08-18T09:59:38.184Z,34.96
2022-08-18T10:02:33.911Z,35.31
2022-08-18T10:05:20.142Z,35.43
2022-08-18T10:08:21.585Z,36.14
2022-08-18T10:11:29.246Z,35.11
2022-08-18T10:14:25.879Z,34.23
2022-08-18T10:17:24.245Z,35.08
2022-08-18T10:20:25.881Z,33.51
2022-08-18T10:22:57.354Z,32.45
2022-08-18T10:25:55.163Z,31.92
2022-08-18T10:29:03.910Z,30.68
2022-08-18T10:31:57.564Z,30.05
2022-08-18T10:34:51.812Z,29.63
2022-08-18T10:37:31.576Z,28.06
2022-08-18T10:40:09.568Z,27.89
2022-08-18T10:42:53.536Z,26.89
2022-08-18T10:45:30.900Z,27.17
2022-08-18T10:48:31.878Z,26.70
2022-08-18T10:51:03.131Z,25.77
2022-08-18T10:53:44.473Z,27.19
2022-08-18T10:56:33.918Z,25.54
2022-08-18T10:59:17.901Z,26.38
2022-08-18T11:02:10.417Z,26.56
2022-08-18T11:04:59.116Z,25.54
2022-08-18T11:07:34.245Z,25.69
2022-08-18T11:13:29.441Z,23.76
2022-08-18T11:16:13.662Z,23.80
2022-08-18T11:18:49.803Z,23.94
2022-08-18T11:21:43.523Z,23.05
2022-08-18T11:24:24.790Z,22.32
2022-08-18T11:27:09.781Z,22.23
2022-08-18T11:29:44.796Z,21.95
2022-08-18T11:32:19.815Z,21.93
2022-08-18T11:34:57.887Z,22.30
2022-08-18T11:37:51.275Z,22.39
2022-08-18T11:43:29.456Z,20.70
2022-08-18T11:46:02.184Z,20.44
2022-08-18T11:48:51.986Z,21.11
2022-08-18T11:51:27.449Z,20.89
2022-08-18T11:54:14.158Z,18.94
2022-08-18T11:56:44.453Z,17.76
2022-08-18T11:59:52.981Z,17.60
2022-08-18T12:02:24.975Z,17.44
2022-08-18T12:05:00.340Z,17.29
2022-08-18T12:07:36.803Z,16.25
2022-08-18T12:13:27.047Z,17.16
2022-08-18T12:16:34.246Z,17.76
2022-08-18T12:19:05.471Z,17.73
2022-08-18T12:21:55.400Z,18.18
2022-08-18T12:24:36.735Z,18.22
2022-08-18T12:27:20.874Z,18.66
2022-08-18T12:29:54.031Z,19.17
2022-08-18T12:32:48.862Z,18.81
2022-08-18T12:35:14.531Z,18.31
2022-08-18T12:38:11.394Z,18.02
2022-08-18T12:40:33.104Z,18.18
2022-08-18T12:43:00.932Z,18.10
2022-08-18T12:45:31.420Z,17.66
2022-08-18T12:48:04.175Z,16.75
2022-08-18T12:50:50.298Z,17.90
2022-08-18T12:56:19.778Z,17.30
2022-08-18T12:58:48.407Z,17.53
2022-08-18T13:01:20.403Z,17.45
2022-08-18T13:04:11.161Z,17.38
2022-08-18T13:06:59.905Z,18.10
2022-08-18T13:09:34.294Z,17.22
2022-08-18T13:12:16.022Z,15.87
2022-08-18T13:14:44.801Z,15.19
2022-08-18T13:17:30.695Z,15.72
2022-08-18T13:20:09.378Z,16.21
2022-08-18T13:22:41.329Z,14.65
2022-08-18T13:25:28.836Z,14.39
2022-08-18T13:28:01.663Z,15.12
2022-08-18T13:30:32.321Z,13.49
2022-08-18T13:33:33.826Z,14.57
2022-08-18T13:35:54.846Z,13.23
2022-08-18T13:38:26.090Z,12.38
2022-08-18T13:40:59.440Z,13.70
2022-08-18T13:43:35.532Z,12.99
2022-08-18T13:46:07.296Z,14.52
2022-08-18T13:48:37.905Z,11.59
2022-08-18T13:51:08.463Z,10.98
2022-08-18T13:53:50.404Z,11.59
2022-08-18T13:56:20.714Z,11.42
2022-08-18T13:58:59.693Z,11.36
2022-08-18T14:01:50.083Z,12.46
2022-08-18T14:04:20.551Z,11.72
2022-08-18T14:06:56.152Z,11.94
2022-08-18T14:09:35.917Z,11.07
2022-08-18T14:12:15.761Z,11.44
2022-08-18T14:14:52.750Z,11.67
2022-08-18T14:17:23.019Z,12.66
2022-08-18T14:20:21.441Z,12.12
2022-08-18T14:23:21.687Z,11.88
2022-08-18T14:26:09.132Z,11.91
2022-08-18T14:28:38.351Z,12.40
2022-08-18T14:31:14.553Z,11.46
2022-08-18T14:33:51.566Z,11.33
2022-08-18T14:36:29.992Z,10.43
2022-08-18T14:38:59.432Z,9.42
2022-08-18T14:41:27.571Z,9.19
2022-08-18T14:44:12.381Z,8.97
2022-08-18T14:46:47.502Z,9.41
2022-08-18T14:49:29.476Z,9.14
2022-08-18T14:52:02.022Z,8.02
2022-08-18T14:54:31.219Z,10.16
2022-08-18T14:57:03.735Z,11.19
2022-08-18T14:59:34.472Z,8.77
2022-08-18T15:02:13.368Z,8.26
2022-08-18T15:04:55.966Z,8.76
2022-08-18T15:07:24.598Z,8.63
2022-08-18T15:10:15.127Z,8.92
2022-08-18T15:12:42.482Z,8.58
2022-08-18T15:15:16.770Z,8.56
2022-08-18T15:17:50.371Z,8.38
2022-08-18T15:20:29.442Z,7.74
2022-08-18T15:23:22.893Z,7.58
2022-08-18T15:25:52.835Z,7.47
2022-08-18T15:28:27.217Z,7.44
2022-08-18T15:33:43.497Z,6.82
2022-08-18T15:36:28.754Z,7.10
2022-08-18T15:38:56.771Z,6.61
2022-08-18T15:41:32.732Z,6.32
2022-08-18T15:44:04.968Z,6.50
2022-08-18T15:46:35.548Z,6.83
2022-08-18T15:49:07.717Z,6.49
2022-08-18T15:51:41.258Z,7.02
2022-08-18T15:54:14.887Z,6.32
2022-08-18T15:56:43.535Z,6.27
2022-08-18T15:59:12.642Z,6.12
2022-08-18T16:01:45.420Z,5.98
2022-08-18T16:04:17.548Z,6.12
2022-08-18T16:06:47.850Z,6.20
2022-08-18T16:09:17.178Z,5.95
2022-08-18T16:11:45.298Z,5.99
2022-08-18T16:14:15.569Z,5.79
2022-08-18T16:16:43.853Z,6.17
2022-08-18T16:19:14.951Z,9.56
2022-08-18T16:21:43.761Z,10.62
2022-08-18T16:24:17.837Z,6.38
2022-08-18T16:26:46.125Z,6.35
2022-08-18T16:29:15.399Z,6.82
2022-08-18T16:31:43.374Z,6.30
2022-08-18T16:34:12.965Z,6.77
2022-08-18T16:36:42.301Z,6.14
2022-08-18T16:39:09.879Z,6.07
2022-08-18T16:41:42.655Z,5.94
2022-08-18T16:44:11.175Z,6.04
2022-08-18T16:46:40.933Z,5.79
2022-08-18T16:49:11.624Z,6.43
2022-08-18T16:51:41.716Z,6.28
2022-08-18T16:54:09.865Z,6.05
2022-08-18T16:56:39.472Z,6.01
2022-08-18T16:59:26.498Z,6.18
2022-08-18T17:02:13.606Z,6.17
2022-08-18T17:04:42.907Z,6.35
2022-08-18T17:07:11.395Z,6.24
2022-08-18T17:09:40.999Z,7.11
2022-08-18T17:12:09.399Z,8.04
2022-08-18T17:14:37.236Z,6.66
2022-08-18T17:17:06.027Z,6.30
2022-08-18T17:19:35.529Z,6.29
2022-08-18T17:22:05.265Z,5.97
2022-08-18T17:24:33.369Z,6.23
2022-08-18T17:27:26.722Z,6.39
2022-08-18T17:30:00.849Z,6.23
2022-08-18T17:35:28.823Z,6.65
2022-08-18T17:38:15.158Z,6.45
2022-08-18T17:40:56.110Z,6.35
2022-08-18T17:46:14.434Z,6.59
2022-08-18T17:48:52.511Z,6.31
2022-08-18T17:51:34.514Z,6.55
2022-08-18T17:54:30.187Z,6.36
2022-08-18T17:57:06.527Z,6.17
2022-08-18T17:59:51.929Z,6.21
2022-08-18T18:02:30.654Z,6.80
2022-08-18T18:05:05.553Z,7.01
2022-08-18T18:07:39.911Z,7.17
2022-08-18T18:10:14.485Z,7.02
2022-08-18T18:12:43.929Z,9.54
2022-08-18T18:15:15.690Z,8.30
2022-08-18T18:17:45.222Z,7.56
2022-08-18T18:20:16.162Z,7.19
2022-08-18T18:22:45.904Z,6.85
2022-08-18T18:25:34.660Z,6.90
2022-08-18T18:28:02.872Z,6.53
2022-08-18T18:30:30.510Z,6.85
2022-08-18T18:32:59.692Z,6.35
2022-08-18T18:35:57.139Z,6.71
2022-08-18T18:38:25.159Z,6.59
2022-08-18T18:41:03.060Z,6.57
2022-08-18T18:43:38.408Z,7.11
2022-08-18T18:46:23.122Z,7.07
2022-08-18T18:49:15.526Z,6.49
2022-08-18T18:51:59.391Z,6.79
2022-08-18T18:54:44.364Z,6.45
2022-08-18T18:57:35.116Z,6.86
2022-08-18T19:00:18.302Z,7.27
2022-08-18T19:03:18.320Z,7.68
2022-08-18T19:06:01.566Z,7.73
2022-08-18T19:08:49.443Z,7.38
2022-08-18T19:11:20.264Z,7.50
2022-08-18T19:14:00.755Z,7.75
2022-08-18T19:16:42.867Z,7.96
2022-08-18T19:19:37.948Z,7.95
2022-08-18T19:22:24.765Z,7.46
2022-08-18T19:24:59.275Z,7.74
2022-08-18T19:27:40.024Z,7.38
2022-08-18T19:30:15.698Z,7.42
2022-08-18T19:32:53.803Z,7.85
2022-08-18T19:35:47.059Z,7.81
2022-08-18T19:38:46.373Z,7.53
2022-08-18T19:41:39.183Z,7.77
2022-08-18T19:44:25.699Z,7.81
2022-08-18T19:47:03.674Z,7.76
2022-08-18T19:49:57.324Z,7.63
2022-08-18T19:52:52.732Z,7.83
2022-08-18T19:55:53.655Z,8.06
2022-08-18T19:59:15.197Z,8.27
2022-08-18T20:02:25.762Z,7.65
2022-08-18T20:05:20.030Z,8.02
2022-08-18T20:08:07.915Z,8.34
2022-08-18T20:10:50.662Z,8.48
2022-08-18T20:13:43.506Z,8.50
2022-08-18T20:16:33.120Z,8.28
2022-08-18T20:19:54.409Z,8.54
2022-08-18T20:22:24.661Z,8.32
2022-08-18T20:24:59.697Z,8.38
2022-08-18T20:27:38.174Z,8.33
2022-08-18T20:30:26.679Z,8.56
2022-08-18T20:33:29.184Z,8.37
2022-08-18T20:36:32.424Z,8.48
2022-08-18T20:39:20.967Z,8.81
2022-08-18T20:41:51.170Z,8.53
2022-08-18T20:44:43.324Z,8.90
2022-08-18T20:47:35.577Z,8.73
2022-08-18T20:50:33.927Z,9.02
2022-08-18T20:53:32.842Z,9.00
2022-08-18T20:56:32.268Z,9.08
2022-08-18T20:59:22.563Z,9.55
2022-08-18T21:01:55.053Z,9.80
2022-08-18T21:04:50.086Z,10.04
2022-08-18T21:07:36.576Z,9.69
2022-08-18T21:10:29.780Z,10.18
2022-08-18T21:13:04.643Z,10.82
2022-08-18T21:15:38.149Z,10.55
2022-08-18T21:18:35.968Z,10.94
2022-08-18T21:21:15.623Z,10.88
2022-08-18T21:23:59.260Z,10.51
2022-08-18T21:26:31.124Z,10.90
2022-08-18T21:29:14.296Z,10.61
2022-08-18T21:31:45.990Z,10.60
2022-08-18T21:34:33.430Z,10.58
2022-08-18T21:37:08.146Z,10.52
2022-08-18T21:39:56.714Z,10.57
2022-08-18T21:42:27.932Z,10.78
2022-08-18T21:44:58.759Z,10.62
2022-08-18T21:47:34.322Z,10.74
2022-08-18T21:50:17.662Z,10.84
2022-08-18T21:52:54.263Z,12.08
2022-08-18T21:55:29.344Z,11.40
2022-08-18T21:58:18.612Z,11.57
2022-08-18T22:01:09.357Z,11.53
2022-08-18T22:04:04.007Z,12.26
2022-08-18T22:06:35.109Z,11.74
2022-08-18T22:09:31.698Z,11.52
2022-08-18T22:12:44.684Z,11.68
2022-08-18T22:15:19.504Z,11.78
2022-08-18T22:17:52.571Z,12.74
2022-08-18T22:20:42.581Z,12.08
2022-08-18T22:23:43.050Z,12.38
2022-08-18T22:26:21.980Z,12.49
2022-08-18T22:28:57.021Z,13.22
2022-08-18T22:31:47.265Z,12.78
2022-08-18T22:34:27.433Z,13.59
2022-08-18T22:37:09.967Z,13.73
2022-08-18T22:40:03.233Z,13.80
2022-08-18T22:42:33.462Z,13.87
2022-08-18T22:45:05.924Z,14.60
2022-08-18T22:47:40.523Z,15.29
2022-08-18T22:50:14.619Z,15.55
2022-08-18T22:52:48.200Z,16.76
2022-08-18T22:55:21.746Z,16.55
2022-08-18T22:57:56.198Z,17.63
2022-08-18T23:00:25.887Z,17.90
2022-08-18T23:02:55.276Z,18.30
2022-08-18T23:05:23.612Z,18.25
2022-08-18T23:07:51.806Z,18.70
2022-08-18T23:10:19.648Z,20.22
2022-08-18T23:12:49.442Z,20.14
2022-08-18T23:15:19.479Z,19.63
2022-08-18T23:17:47.361Z,20.63
2022-08-18T23:20:19.285Z,20.55
2022-08-18T23:22:48.676Z,20.58
2022-08-18T23:25:16.722Z,20.77
2022-08-18T23:27:44.373Z,20.91
2022-08-18T23:30:15.512Z,21.80
2022-08-18T23:32:43.733Z,22.23
2022-08-18T23:35:14.017Z,22.97
2022-08-18T23:37:43.696Z,25.00
2022-08-18T23:40:18.350Z,23.91
2022-08-18T23:42:46.524Z,24.30
2022-08-18T23:45:15.656Z,24.10
2022-08-18T23:47:43.946Z,23.43
2022-08-18T23:50:14.283Z,23.55
2022-08-18T23:52:42.858Z,23.24
2022-08-18T23:55:17.254Z,22.98
2022-08-18T23:57:44.876Z,23.86
